sensor_id;sensor_type;location;lat;lon;timestamp;P1;durP1;ratioP1;P2;durP2;ratioP2
2175;SDS011;1094;49.902;10.876;2022-11-04T00:01:16;19.23;;;12.80;;
2175;SDS011;1094;49.902;10.876;2022-11-04T00:03:42;18.10;;;13.17;;
2175;SDS011;1094;49.902;10.876;2022-11-04T00:06:08;15.70;;;12.83;;
2175;SDS011;1094;49.902;10.876;2022-11-04T00:08:34;21.90;;;13.50;;
2175;SDS011;1094;49.902;10.876;2022-11-04T00:11:00;20.40;;;13.20;;
2175;SDS011;1094;49.902;10.876;2022-11-04T00:13:45;16.77;;;12.43;;
2175;SDS011;1094;49.902;10.876;2022-11-04T00:16:12;17.73;;;11.90;;
2175;SDS011;1094;49.902;10.876;2022-11-04T00:18:58;18.90;;;13.57;;
2175;SDS011;1094;49.902;10.876;2022-11-04T00:21:24;18.60;;;12.90;;
2175;SDS011;1094;49.902;10.876;2022-11-04T00:24:10;20.33;;;11.93;;
2175;SDS011;1094;49.902;10.876;2022-11-04T00:26:54;19.27;;;12.00;;
2175;SDS011;1094;49.902;10.876;2022-11-04T00:29:39;16.47;;;11.63;;
2175;SDS011;1094;49.902;10.876;2022-11-04T00:32:05;19.93;;;11.53;;
2175;SDS011;1094;49.902;10.876;2022-11-04T00:34:49;15.80;;;11.70;;
2175;SDS011;1094;49.902;10.876;2022-11-04T00:37:15;16.90;;;12.17;;
2175;SDS011;1094;49.902;10.876;2022-11-04T00:39:41;16.60;;;12.07;;
2175;SDS011;1094;49.902;10.876;2022-11-04T00:42:07;18.20;;;12.63;;
2175;SDS011;1094;49.902;10.876;2022-11-04T00:44:33;18.47;;;11.57;;
2175;SDS011;1094;49.902;10.876;2022-11-04T00:46:59;16.70;;;12.60;;
2175;SDS011;1094;49.902;10.876;2022-11-04T00:49:25;16.27;;;12.33;;
2175;SDS011;1094;49.902;10.876;2022-11-04T00:51:51;15.03;;;10.73;;
2175;SDS011;1094;49.902;10.876;2022-11-04T00:54:17;20.17;;;12.73;;
2175;SDS011;1094;49.902;10.876;2022-11-04T00:56:43;18.53;;;12.53;;
2175;SDS011;1094;49.902;10.876;2022-11-04T00:59:09;14.67;;;11.43;;
2175;SDS011;1094;49.902;10.876;2022-11-04T01:01:35;17.50;;;11.30;;
2175;SDS011;1094;49.902;10.876;2022-11-04T01:04:01;18.50;;;12.30;;
2175;SDS011;1094;49.902;10.876;2022-11-04T01:06:27;15.47;;;11.40;;
2175;SDS011;1094;49.902;10.876;2022-11-04T01:09:00;16.27;;;11.87;;
2175;SDS011;1094;49.902;10.876;2022-11-04T01:11:27;19.43;;;12.53;;
2175;SDS011;1094;49.902;10.876;2022-11-04T01:13:53;18.17;;;13.40;;
2175;SDS011;1094;49.902;10.876;2022-11-04T01:16:19;20.63;;;11.77;;
2175;SDS011;1094;49.902;10.876;2022-11-04T01:18:45;16.53;;;11.60;;
2175;SDS011;1094;49.902;10.876;2022-11-04T01:21:12;18.40;;;12.40;;
2175;SDS011;1094;49.902;10.876;2022-11-04T01:23:38;16.50;;;11.87;;
2175;SDS011;1094;49.902;10.876;2022-11-04T01:26:05;15.37;;;11.63;;
2175;SDS011;1094;49.902;10.876;2022-11-04T01:28:31;17.43;;;12.43;;
2175;SDS011;1094;49.902;10.876;2022-11-04T01:30:57;18.30;;;12.20;;
2175;SDS011;1094;49.902;10.876;2022-11-04T01:33:23;19.53;;;12.33;;
2175;SDS011;1094;49.902;10.876;2022-11-04T01:35:49;16.40;;;11.20;;
2175;SDS011;1094;49.902;10.876;2022-11-04T01:38:16;14.00;;;9.23;;
2175;SDS011;1094;49.902;10.876;2022-11-04T01:40:42;15.80;;;10.60;;
2175;SDS011;1094;49.902;10.876;2022-11-04T01:43:14;14.10;;;10.80;;
2175;SDS011;1094;49.902;10.876;2022-11-04T01:45:41;14.10;;;11.27;;
2175;SDS011;1094;49.902;10.876;2022-11-04T01:48:15;14.30;;;9.80;;
2175;SDS011;1094;49.902;10.876;2022-11-04T01:50:42;14.33;;;9.90;;
2175;SDS011;1094;49.902;10.876;2022-11-04T01:53:10;12.77;;;9.10;;
2175;SDS011;1094;49.902;10.876;2022-11-04T01:55:48;14.17;;;9.30;;
2175;SDS011;1094;49.902;10.876;2022-11-04T01:58:16;11.70;;;8.80;;
2175;SDS011;1094;49.902;10.876;2022-11-04T02:00:43;11.23;;;8.50;;
2175;SDS011;1094;49.902;10.876;2022-11-04T02:03:14;12.03;;;7.97;;
2175;SDS011;1094;49.902;10.876;2022-11-04T02:05:41;10.00;;;8.23;;
2175;SDS011;1094;49.902;10.876;2022-11-04T02:08:07;11.87;;;8.70;;
2175;SDS011;1094;49.902;10.876;2022-11-04T02:10:34;12.60;;;8.47;;
2175;SDS011;1094;49.902;10.876;2022-11-04T02:13:02;10.17;;;8.13;;
2175;SDS011;1094;49.902;10.876;2022-11-04T02:15:30;10.50;;;8.13;;
2175;SDS011;1094;49.902;10.876;2022-11-04T02:20:47;10.07;;;8.63;;
2175;SDS011;1094;49.902;10.876;2022-11-04T02:31:00;10.43;;;7.70;;
2175;SDS011;1094;49.902;10.876;2022-11-04T02:33:36;9.50;;;8.03;;
2175;SDS011;1094;49.902;10.876;2022-11-04T02:36:16;10.30;;;8.83;;
2175;SDS011;1094;49.902;10.876;2022-11-04T02:38:52;10.93;;;8.60;;
2175;SDS011;1094;49.902;10.876;2022-11-04T02:49:02;9.00;;;7.30;;
2175;SDS011;1094;49.902;10.876;2022-11-04T02:51:32;7.17;;;6.37;;
2175;SDS011;1094;49.902;10.876;2022-11-04T02:56:45;8.93;;;6.77;;
2175;SDS011;1094;49.902;10.876;2022-11-04T02:59:17;9.20;;;7.40;;
2175;SDS011;1094;49.902;10.876;2022-11-04T03:01:45;6.97;;;5.77;;
2175;SDS011;1094;49.902;10.876;2022-11-04T03:04:13;7.27;;;6.23;;
2175;SDS011;1094;49.902;10.876;2022-11-04T03:06:40;7.13;;;5.47;;
2175;SDS011;1094;49.902;10.876;2022-11-04T03:09:09;7.30;;;5.60;;
2175;SDS011;1094;49.902;10.876;2022-11-04T03:11:36;7.50;;;6.20;;
2175;SDS011;1094;49.902;10.876;2022-11-04T03:14:04;6.87;;;6.17;;
2175;SDS011;1094;49.902;10.876;2022-11-04T03:21:23;6.50;;;5.57;;
2175;SDS011;1094;49.902;10.876;2022-11-04T03:23:50;8.80;;;6.40;;
2175;SDS011;1094;49.902;10.876;2022-11-04T03:26:18;5.90;;;5.30;;
2175;SDS011;1094;49.902;10.876;2022-11-04T03:28:51;5.40;;;4.90;;
2175;SDS011;1094;49.902;10.876;2022-11-04T03:31:28;5.70;;;5.20;;
2175;SDS011;1094;49.902;10.876;2022-11-04T03:33:57;6.53;;;5.83;;
2175;SDS011;1094;49.902;10.876;2022-11-04T03:36:23;9.27;;;4.83;;
2175;SDS011;1094;49.902;10.876;2022-11-04T03:38:50;4.83;;;4.40;;
2175;SDS011;1094;49.902;10.876;2022-11-04T03:41:18;4.53;;;4.13;;
2175;SDS011;1094;49.902;10.876;2022-11-04T03:43:44;4.40;;;3.80;;
2175;SDS011;1094;49.902;10.876;2022-11-04T03:46:10;4.47;;;4.07;;
2175;SDS011;1094;49.902;10.876;2022-11-04T03:48:36;4.00;;;3.60;;
2175;SDS011;1094;49.902;10.876;2022-11-04T03:51:02;9.43;;;4.30;;
2175;SDS011;1094;49.902;10.876;2022-11-04T03:53:28;4.10;;;3.80;;
2175;SDS011;1094;49.902;10.876;2022-11-04T03:58:31;3.50;;;3.20;;
2175;SDS011;1094;49.902;10.876;2022-11-04T04:01:47;4.43;;;3.73;;
2175;SDS011;1094;49.902;10.876;2022-11-04T04:03:54;4.27;;;3.70;;
2175;SDS011;1094;49.902;10.876;2022-11-04T04:06:27;4.10;;;3.20;;
2175;SDS011;1094;49.902;10.876;2022-11-04T04:09:03;3.30;;;3.00;;
2175;SDS011;1094;49.902;10.876;2022-11-04T04:14:14;4.07;;;3.67;;
2175;SDS011;1094;49.902;10.876;2022-11-04T04:17:00;3.27;;;3.07;;
2175;SDS011;1094;49.902;10.876;2022-11-04T04:19:28;3.50;;;2.90;;
2175;SDS011;1094;49.902;10.876;2022-11-04T04:21:57;7.30;;;2.93;;
2175;SDS011;1094;49.902;10.876;2022-11-04T04:24:25;4.00;;;2.90;;
2175;SDS011;1094;49.902;10.876;2022-11-04T04:27:10;3.00;;;2.73;;
2175;SDS011;1094;49.902;10.876;2022-11-04T04:29:54;2.83;;;2.63;;
2175;SDS011;1094;49.902;10.876;2022-11-04T04:32:21;2.83;;;2.63;;
2175;SDS011;1094;49.902;10.876;2022-11-04T04:34:48;2.67;;;2.47;;
2175;SDS011;1094;49.902;10.876;2022-11-04T04:37:21;3.63;;;2.70;;
2175;SDS011;1094;49.902;10.876;2022-11-04T04:39:52;3.27;;;2.90;;
2175;SDS011;1094;49.902;10.876;2022-11-04T04:42:37;3.00;;;2.70;;
2175;SDS011;1094;49.902;10.876;2022-11-04T04:45:27;4.23;;;2.67;;
2175;SDS011;1094;49.902;10.876;2022-11-04T04:47:56;2.93;;;2.73;;
2175;SDS011;1094;49.902;10.876;2022-11-04T04:50:22;3.13;;;2.83;;
2175;SDS011;1094;49.902;10.876;2022-11-04T04:52:51;3.23;;;2.93;;
2175;SDS011;1094;49.902;10.876;2022-11-04T04:55:18;2.90;;;2.63;;
2175;SDS011;1094;49.902;10.876;2022-11-04T04:57:44;5.20;;;2.80;;
2175;SDS011;1094;49.902;10.876;2022-11-04T05:00:12;3.77;;;2.90;;
2175;SDS011;1094;49.902;10.876;2022-11-04T05:02:38;3.40;;;2.80;;
2175;SDS011;1094;49.902;10.876;2022-11-04T05:05:04;3.57;;;2.93;;
2175;SDS011;1094;49.902;10.876;2022-11-04T05:07:30;3.03;;;2.40;;
2175;SDS011;1094;49.902;10.876;2022-11-04T05:09:56;2.70;;;2.50;;
2175;SDS011;1094;49.902;10.876;2022-11-04T05:12:22;3.00;;;2.80;;
2175;SDS011;1094;49.902;10.876;2022-11-04T05:14:48;3.23;;;2.93;;
2175;SDS011;1094;49.902;10.876;2022-11-04T05:17:14;2.87;;;2.67;;
2175;SDS011;1094;49.902;10.876;2022-11-04T05:19:40;4.80;;;2.80;;
2175;SDS011;1094;49.902;10.876;2022-11-04T05:22:06;2.93;;;2.73;;
2175;SDS011;1094;49.902;10.876;2022-11-04T05:24:32;3.03;;;2.73;;
2175;SDS011;1094;49.902;10.876;2022-11-04T05:26:58;2.80;;;2.60;;
2175;SDS011;1094;49.902;10.876;2022-11-04T05:29:24;3.70;;;2.97;;
2175;SDS011;1094;49.902;10.876;2022-11-04T05:31:50;4.00;;;2.57;;
2175;SDS011;1094;49.902;10.876;2022-11-04T05:34:16;3.13;;;2.83;;
2175;SDS011;1094;49.902;10.876;2022-11-04T05:36:42;3.20;;;3.00;;
2175;SDS011;1094;49.902;10.876;2022-11-04T05:39:09;3.10;;;2.70;;
2175;SDS011;1094;49.902;10.876;2022-11-04T05:41:36;3.90;;;3.00;;
2175;SDS011;1094;49.902;10.876;2022-11-04T05:44:02;3.30;;;3.00;;
2175;SDS011;1094;49.902;10.876;2022-11-04T05:46:29;2.87;;;2.67;;
2175;SDS011;1094;49.902;10.876;2022-11-04T05:48:55;3.40;;;3.10;;
2175;SDS011;1094;49.902;10.876;2022-11-04T05:51:22;2.87;;;2.60;;
2175;SDS011;1094;49.902;10.876;2022-11-04T05:53:48;3.00;;;2.77;;
2175;SDS011;1094;49.902;10.876;2022-11-04T05:56:14;5.40;;;2.57;;
2175;SDS011;1094;49.902;10.876;2022-11-04T05:58:40;3.20;;;2.90;;
2175;SDS011;1094;49.902;10.876;2022-11-04T06:01:21;3.20;;;2.70;;
2175;SDS011;1094;49.902;10.876;2022-11-04T06:03:48;5.30;;;3.20;;
2175;SDS011;1094;49.902;10.876;2022-11-04T06:06:14;4.60;;;4.13;;
2175;SDS011;1094;49.902;10.876;2022-11-04T06:08:40;3.17;;;2.87;;
2175;SDS011;1094;49.902;10.876;2022-11-04T06:11:06;3.00;;;2.60;;
2175;SDS011;1094;49.902;10.876;2022-11-04T06:13:32;3.93;;;2.80;;
2175;SDS011;1094;49.902;10.876;2022-11-04T06:15:58;3.10;;;2.80;;
2175;SDS011;1094;49.902;10.876;2022-11-04T06:18:24;4.23;;;2.97;;
2175;SDS011;1094;49.902;10.876;2022-11-04T06:20:49;3.20;;;2.90;;
2175;SDS011;1094;49.902;10.876;2022-11-04T06:23:30;5.30;;;2.60;;
2175;SDS011;1094;49.902;10.876;2022-11-04T06:25:56;5.43;;;2.70;;
2175;SDS011;1094;49.902;10.876;2022-11-04T06:28:22;3.03;;;2.80;;
2175;SDS011;1094;49.902;10.876;2022-11-04T06:30:48;4.10;;;2.63;;
2175;SDS011;1094;49.902;10.876;2022-11-04T06:33:14;4.63;;;2.73;;
2175;SDS011;1094;49.902;10.876;2022-11-04T06:35:40;2.80;;;2.60;;
2175;SDS011;1094;49.902;10.876;2022-11-04T06:38:06;2.77;;;2.50;;
2175;SDS011;1094;49.902;10.876;2022-11-04T06:40:31;2.50;;;2.30;;
2175;SDS011;1094;49.902;10.876;2022-11-04T06:42:58;2.83;;;2.50;;
2175;SDS011;1094;49.902;10.876;2022-11-04T06:45:24;2.63;;;2.43;;
2175;SDS011;1094;49.902;10.876;2022-11-04T06:47:49;5.87;;;2.63;;
2175;SDS011;1094;49.902;10.876;2022-11-04T06:50:15;2.40;;;2.20;;
2175;SDS011;1094;49.902;10.876;2022-11-04T06:52:42;3.60;;;2.23;;
2175;SDS011;1094;49.902;10.876;2022-11-04T06:55:08;3.27;;;2.10;;
2175;SDS011;1094;49.902;10.876;2022-11-04T06:57:34;2.47;;;2.27;;
2175;SDS011;1094;49.902;10.876;2022-11-04T07:00:00;4.73;;;1.97;;
2175;SDS011;1094;49.902;10.876;2022-11-04T07:02:26;2.50;;;2.20;;
2175;SDS011;1094;49.902;10.876;2022-11-04T07:04:52;3.47;;;2.53;;
2175;SDS011;1094;49.902;10.876;2022-11-04T07:07:18;2.30;;;2.10;;
2175;SDS011;1094;49.902;10.876;2022-11-04T07:09:44;2.80;;;2.00;;
2175;SDS011;1094;49.902;10.876;2022-11-04T07:12:10;2.80;;;1.90;;
2175;SDS011;1094;49.902;10.876;2022-11-04T07:14:36;2.40;;;1.73;;
2175;SDS011;1094;49.902;10.876;2022-11-04T07:17:02;3.23;;;2.20;;
2175;SDS011;1094;49.902;10.876;2022-11-04T07:19:28;3.00;;;1.93;;
2175;SDS011;1094;49.902;10.876;2022-11-04T07:21:54;2.17;;;1.70;;
2175;SDS011;1094;49.902;10.876;2022-11-04T07:24:20;2.37;;;2.20;;
2175;SDS011;1094;49.902;10.876;2022-11-04T07:26:46;2.90;;;2.27;;
2175;SDS011;1094;49.902;10.876;2022-11-04T07:29:12;3.43;;;2.43;;
2175;SDS011;1094;49.902;10.876;2022-11-04T07:31:38;2.87;;;2.53;;
2175;SDS011;1094;49.902;10.876;2022-11-04T07:34:04;2.90;;;2.20;;
2175;SDS011;1094;49.902;10.876;2022-11-04T07:36:30;3.27;;;2.30;;
2175;SDS011;1094;49.902;10.876;2022-11-04T07:38:56;2.30;;;1.90;;
2175;SDS011;1094;49.902;10.876;2022-11-04T07:41:22;2.67;;;2.43;;
2175;SDS011;1094;49.902;10.876;2022-11-04T07:43:48;3.80;;;2.63;;
2175;SDS011;1094;49.902;10.876;2022-11-04T07:46:14;3.67;;;2.70;;
2175;SDS011;1094;49.902;10.876;2022-11-04T07:48:40;2.60;;;2.40;;
2175;SDS011;1094;49.902;10.876;2022-11-04T07:51:07;3.40;;;1.90;;
2175;SDS011;1094;49.902;10.876;2022-11-04T07:53:34;2.07;;;1.83;;
2175;SDS011;1094;49.902;10.876;2022-11-04T07:56:04;3.00;;;2.33;;
2175;SDS011;1094;49.902;10.876;2022-11-04T07:58:30;1.90;;;1.80;;
2175;SDS011;1094;49.902;10.876;2022-11-04T08:01:00;2.23;;;1.90;;
2175;SDS011;1094;49.902;10.876;2022-11-04T08:03:27;2.27;;;2.00;;
2175;SDS011;1094;49.902;10.876;2022-11-04T08:05:54;2.93;;;2.13;;
2175;SDS011;1094;49.902;10.876;2022-11-04T08:08:20;5.30;;;2.33;;
2175;SDS011;1094;49.902;10.876;2022-11-04T08:10:50;3.40;;;2.80;;
2175;SDS011;1094;49.902;10.876;2022-11-04T08:13:16;2.40;;;2.00;;
2175;SDS011;1094;49.902;10.876;2022-11-04T08:15:42;3.30;;;2.50;;
2175;SDS011;1094;49.902;10.876;2022-11-04T08:18:08;3.10;;;2.07;;
2175;SDS011;1094;49.902;10.876;2022-11-04T08:20:34;4.10;;;2.33;;
2175;SDS011;1094;49.902;10.876;2022-11-04T08:23:00;3.00;;;2.63;;
2175;SDS011;1094;49.902;10.876;2022-11-04T08:25:26;5.30;;;3.07;;
2175;SDS011;1094;49.902;10.876;2022-11-04T08:27:52;6.27;;;4.20;;
2175;SDS011;1094;49.902;10.876;2022-11-04T08:30:18;3.53;;;2.70;;
2175;SDS011;1094;49.902;10.876;2022-11-04T08:32:44;4.70;;;2.60;;
2175;SDS011;1094;49.902;10.876;2022-11-04T08:35:10;3.70;;;2.90;;
2175;SDS011;1094;49.902;10.876;2022-11-04T08:37:36;6.60;;;2.67;;
2175;SDS011;1094;49.902;10.876;2022-11-04T08:40:03;6.93;;;2.40;;
2175;SDS011;1094;49.902;10.876;2022-11-04T08:42:29;4.93;;;3.87;;
2175;SDS011;1094;49.902;10.876;2022-11-04T08:44:55;6.90;;;3.70;;
2175;SDS011;1094;49.902;10.876;2022-11-04T08:47:21;3.73;;;2.60;;
2175;SDS011;1094;49.902;10.876;2022-11-04T08:49:47;3.57;;;2.70;;
2175;SDS011;1094;49.902;10.876;2022-11-04T08:52:13;6.50;;;2.40;;
2175;SDS011;1094;49.902;10.876;2022-11-04T08:54:39;7.53;;;2.77;;
2175;SDS011;1094;49.902;10.876;2022-11-04T08:57:05;3.17;;;2.80;;
2175;SDS011;1094;49.902;10.876;2022-11-04T08:59:31;6.40;;;2.50;;
2175;SDS011;1094;49.902;10.876;2022-11-04T09:01:56;4.13;;;2.53;;
2175;SDS011;1094;49.902;10.876;2022-11-04T09:04:22;11.00;;;4.53;;
2175;SDS011;1094;49.902;10.876;2022-11-04T09:06:48;3.03;;;2.13;;
2175;SDS011;1094;49.902;10.876;2022-11-04T09:09:18;4.27;;;2.90;;
2175;SDS011;1094;49.902;10.876;2022-11-04T09:11:44;5.63;;;2.53;;
2175;SDS011;1094;49.902;10.876;2022-11-04T09:14:10;2.93;;;2.60;;
2175;SDS011;1094;49.902;10.876;2022-11-04T09:16:37;8.10;;;3.03;;
2175;SDS011;1094;49.902;10.876;2022-11-04T09:19:03;2.50;;;2.17;;
2175;SDS011;1094;49.902;10.876;2022-11-04T09:21:29;5.00;;;2.90;;
2175;SDS011;1094;49.902;10.876;2022-11-04T09:23:55;7.20;;;3.10;;
2175;SDS011;1094;49.902;10.876;2022-11-04T09:26:21;2.90;;;2.10;;
2175;SDS011;1094;49.902;10.876;2022-11-04T09:28:51;5.60;;;2.47;;
2175;SDS011;1094;49.902;10.876;2022-11-04T09:31:18;2.40;;;2.20;;
2175;SDS011;1094;49.902;10.876;2022-11-04T09:33:44;2.57;;;1.90;;
2175;SDS011;1094;49.902;10.876;2022-11-04T09:36:10;3.90;;;2.17;;
2175;SDS011;1094;49.902;10.876;2022-11-04T09:38:37;2.73;;;2.40;;
2175;SDS011;1094;49.902;10.876;2022-11-04T09:46:08;3.63;;;2.40;;
2175;SDS011;1094;49.902;10.876;2022-11-04T09:48:39;2.30;;;2.10;;
2175;SDS011;1094;49.902;10.876;2022-11-04T09:51:06;4.70;;;2.50;;
2175;SDS011;1094;49.902;10.876;2022-11-04T09:56:10;3.70;;;2.10;;
2175;SDS011;1094;49.902;10.876;2022-11-04T09:58:38;4.77;;;2.23;;
2175;SDS011;1094;49.902;10.876;2022-11-04T10:01:14;3.90;;;2.17;;
2175;SDS011;1094;49.902;10.876;2022-11-04T10:06:25;4.60;;;2.10;;
2175;SDS011;1094;49.902;10.876;2022-11-04T10:16:40;5.60;;;2.00;;
2175;SDS011;1094;49.902;10.876;2022-11-04T10:22:09;4.70;;;2.77;;
2175;SDS011;1094;49.902;10.876;2022-11-04T10:24:52;5.23;;;2.47;;
2175;SDS011;1094;49.902;10.876;2022-11-04T10:27:22;4.60;;;2.13;;
2175;SDS011;1094;49.902;10.876;2022-11-04T10:29:56;5.43;;;2.40;;
2175;SDS011;1094;49.902;10.876;2022-11-04T10:32:25;4.17;;;2.30;;
2175;SDS011;1094;49.902;10.876;2022-11-04T10:34:54;11.30;;;2.37;;
2175;SDS011;1094;49.902;10.876;2022-11-04T10:37:22;4.53;;;2.10;;
2175;SDS011;1094;49.902;10.876;2022-11-04T10:39:49;7.70;;;1.90;;
2175;SDS011;1094;49.902;10.876;2022-11-04T10:42:18;6.03;;;2.90;;
2175;SDS011;1094;49.902;10.876;2022-11-04T10:44:46;3.50;;;2.13;;
2175;SDS011;1094;49.902;10.876;2022-11-04T10:47:16;2.60;;;1.80;;
2175;SDS011;1094;49.902;10.876;2022-11-04T10:52:18;4.70;;;2.03;;
2175;SDS011;1094;49.902;10.876;2022-11-04T10:54:45;6.50;;;1.97;;
2175;SDS011;1094;49.902;10.876;2022-11-04T10:57:13;4.17;;;2.00;;
2175;SDS011;1094;49.902;10.876;2022-11-04T10:59:51;3.40;;;2.10;;
2175;SDS011;1094;49.902;10.876;2022-11-04T11:02:18;3.10;;;1.60;;
2175;SDS011;1094;49.902;10.876;2022-11-04T11:04:44;5.57;;;2.10;;
2175;SDS011;1094;49.902;10.876;2022-11-04T11:07:12;3.00;;;2.30;;
2175;SDS011;1094;49.902;10.876;2022-11-04T11:14:36;4.93;;;1.97;;
2175;SDS011;1094;49.902;10.876;2022-11-04T11:17:19;4.13;;;1.97;;
2175;SDS011;1094;49.902;10.876;2022-11-04T11:19:56;3.67;;;1.90;;
2175;SDS011;1094;49.902;10.876;2022-11-04T11:22:27;3.87;;;1.90;;
2175;SDS011;1094;49.902;10.876;2022-11-04T11:25:10;2.33;;;1.80;;
2175;SDS011;1094;49.902;10.876;2022-11-04T11:27:37;5.23;;;1.97;;
2175;SDS011;1094;49.902;10.876;2022-11-04T11:30:03;4.20;;;1.90;;
2175;SDS011;1094;49.902;10.876;2022-11-04T11:34:55;2.90;;;1.90;;
2175;SDS011;1094;49.902;10.876;2022-11-04T11:37:25;4.00;;;1.80;;
2175;SDS011;1094;49.902;10.876;2022-11-04T11:39:52;2.50;;;1.77;;
2175;SDS011;1094;49.902;10.876;2022-11-04T11:42:18;3.00;;;1.70;;
2175;SDS011;1094;49.902;10.876;2022-11-04T11:47:18;3.30;;;1.93;;
2175;SDS011;1094;49.902;10.876;2022-11-04T11:52:35;3.33;;;1.87;;
2175;SDS011;1094;49.902;10.876;2022-11-04T11:55:05;3.77;;;2.30;;
2175;SDS011;1094;49.902;10.876;2022-11-04T11:57:40;4.80;;;2.53;;
2175;SDS011;1094;49.902;10.876;2022-11-04T12:00:11;3.23;;;2.17;;
2175;SDS011;1094;49.902;10.876;2022-11-04T12:02:45;5.47;;;2.10;;
2175;SDS011;1094;49.902;10.876;2022-11-04T12:05:13;12.03;;;2.83;;
2175;SDS011;1094;49.902;10.876;2022-11-04T12:07:58;7.00;;;2.00;;
2175;SDS011;1094;49.902;10.876;2022-11-04T12:10:34;4.43;;;2.00;;
2175;SDS011;1094;49.902;10.876;2022-11-04T12:13:13;5.53;;;1.80;;
2175;SDS011;1094;49.902;10.876;2022-11-04T12:15:47;3.90;;;2.90;;
2175;SDS011;1094;49.902;10.876;2022-11-04T12:18:24;7.20;;;3.67;;
2175;SDS011;1094;49.902;10.876;2022-11-04T12:20:59;5.23;;;2.17;;
2175;SDS011;1094;49.902;10.876;2022-11-04T12:23:30;12.23;;;3.03;;
2175;SDS011;1094;49.902;10.876;2022-11-04T12:26:25;2.40;;;2.10;;
2175;SDS011;1094;49.902;10.876;2022-11-04T12:31:27;2.70;;;1.90;;
2175;SDS011;1094;49.902;10.876;2022-11-04T12:34:17;6.90;;;2.00;;
2175;SDS011;1094;49.902;10.876;2022-11-04T12:37:32;3.43;;;2.03;;
2175;SDS011;1094;49.902;10.876;2022-11-04T12:40:34;3.93;;;2.07;;
2175;SDS011;1094;49.902;10.876;2022-11-04T12:47:35;2.07;;;1.70;;
2175;SDS011;1094;49.902;10.876;2022-11-04T12:50:05;6.33;;;1.80;;
2175;SDS011;1094;49.902;10.876;2022-11-04T12:55:35;5.13;;;1.87;;
2175;SDS011;1094;49.902;10.876;2022-11-04T13:00:42;2.67;;;1.87;;
2175;SDS011;1094;49.902;10.876;2022-11-04T13:03:14;3.53;;;2.17;;
2175;SDS011;1094;49.902;10.876;2022-11-04T13:05:43;3.23;;;1.70;;
2175;SDS011;1094;49.902;10.876;2022-11-04T13:08:23;2.70;;;1.90;;
2175;SDS011;1094;49.902;10.876;2022-11-04T13:11:10;3.50;;;2.00;;
2175;SDS011;1094;49.902;10.876;2022-11-04T13:16:34;1.97;;;1.70;;
2175;SDS011;1094;49.902;10.876;2022-11-04T13:19:01;5.17;;;1.80;;
2175;SDS011;1094;49.902;10.876;2022-11-04T13:21:29;6.50;;;1.80;;
2175;SDS011;1094;49.902;10.876;2022-11-04T13:23:59;2.87;;;1.90;;
2175;SDS011;1094;49.902;10.876;2022-11-04T13:26:26;3.30;;;1.87;;
2175;SDS011;1094;49.902;10.876;2022-11-04T13:28:58;2.83;;;2.00;;
2175;SDS011;1094;49.902;10.876;2022-11-04T13:44:14;5.90;;;2.20;;
2175;SDS011;1094;49.902;10.876;2022-11-04T13:46:45;6.47;;;2.40;;
2175;SDS011;1094;49.902;10.876;2022-11-04T13:51:43;3.80;;;2.20;;
2175;SDS011;1094;49.902;10.876;2022-11-04T13:54:22;5.30;;;2.10;;
2175;SDS011;1094;49.902;10.876;2022-11-04T13:56:48;4.23;;;2.40;;
2175;SDS011;1094;49.902;10.876;2022-11-04T14:01:43;5.63;;;2.40;;
2175;SDS011;1094;49.902;10.876;2022-11-04T14:09:23;3.60;;;1.80;;
2175;SDS011;1094;49.902;10.876;2022-11-04T14:14:38;7.57;;;2.90;;
2175;SDS011;1094;49.902;10.876;2022-11-04T14:22:21;5.23;;;2.60;;
2175;SDS011;1094;49.902;10.876;2022-11-04T14:25:00;3.60;;;2.63;;
2175;SDS011;1094;49.902;10.876;2022-11-04T14:27:37;7.27;;;2.53;;
2175;SDS011;1094;49.902;10.876;2022-11-04T14:30:04;2.47;;;1.90;;
2175;SDS011;1094;49.902;10.876;2022-11-04T14:32:33;4.10;;;2.60;;
2175;SDS011;1094;49.902;10.876;2022-11-04T14:35:02;4.97;;;2.60;;
2175;SDS011;1094;49.902;10.876;2022-11-04T14:37:30;4.20;;;2.20;;
2175;SDS011;1094;49.902;10.876;2022-11-04T14:39:58;3.20;;;2.90;;
2175;SDS011;1094;49.902;10.876;2022-11-04T14:45:11;4.60;;;2.80;;
2175;SDS011;1094;49.902;10.876;2022-11-04T14:47:40;9.60;;;3.13;;
2175;SDS011;1094;49.902;10.876;2022-11-04T14:50:13;5.10;;;2.90;;
2175;SDS011;1094;49.902;10.876;2022-11-04T14:57:40;4.13;;;2.80;;
2175;SDS011;1094;49.902;10.876;2022-11-04T15:05:36;5.33;;;3.63;;
2175;SDS011;1094;49.902;10.876;2022-11-04T15:10:48;8.57;;;4.40;;
2175;SDS011;1094;49.902;10.876;2022-11-04T15:13:17;6.00;;;3.87;;
2175;SDS011;1094;49.902;10.876;2022-11-04T15:15:43;6.37;;;3.93;;
2175;SDS011;1094;49.902;10.876;2022-11-04T15:18:14;7.10;;;3.70;;
2175;SDS011;1094;49.902;10.876;2022-11-04T15:20:45;6.03;;;3.20;;
2175;SDS011;1094;49.902;10.876;2022-11-04T15:23:13;5.10;;;3.30;;
2175;SDS011;1094;49.902;10.876;2022-11-04T15:25:44;4.03;;;3.17;;
2175;SDS011;1094;49.902;10.876;2022-11-04T15:28:21;6.43;;;3.80;;
2175;SDS011;1094;49.902;10.876;2022-11-04T15:30:57;12.73;;;4.30;;
2175;SDS011;1094;49.902;10.876;2022-11-04T15:33:24;7.00;;;3.30;;
2175;SDS011;1094;49.902;10.876;2022-11-04T15:35:51;7.30;;;3.90;;
2175;SDS011;1094;49.902;10.876;2022-11-04T15:38:17;6.00;;;3.83;;
2175;SDS011;1094;49.902;10.876;2022-11-04T15:40:43;12.27;;;7.13;;
2175;SDS011;1094;49.902;10.876;2022-11-04T15:43:10;4.87;;;4.20;;
2175;SDS011;1094;49.902;10.876;2022-11-04T15:45:37;7.03;;;4.80;;
2175;SDS011;1094;49.902;10.876;2022-11-04T15:51:32;5.63;;;4.07;;
2175;SDS011;1094;49.902;10.876;2022-11-04T15:53:45;7.03;;;4.83;;
2175;SDS011;1094;49.902;10.876;2022-11-04T15:56:12;8.77;;;4.90;;
2175;SDS011;1094;49.902;10.876;2022-11-04T15:58:40;10.20;;;4.17;;
2175;SDS011;1094;49.902;10.876;2022-11-04T16:01:06;10.77;;;4.90;;
2175;SDS011;1094;49.902;10.876;2022-11-04T16:03:32;6.57;;;4.97;;
2175;SDS011;1094;49.902;10.876;2022-11-04T16:05:58;6.73;;;4.73;;
2175;SDS011;1094;49.902;10.876;2022-11-04T16:08:26;10.77;;;5.80;;
2175;SDS011;1094;49.902;10.876;2022-11-04T16:13:34;10.73;;;5.93;;
2175;SDS011;1094;49.902;10.876;2022-11-04T16:18:32;10.57;;;5.77;;
2175;SDS011;1094;49.902;10.876;2022-11-04T16:21:00;12.30;;;5.60;;
2175;SDS011;1094;49.902;10.876;2022-11-04T16:23:27;7.77;;;4.97;;
2175;SDS011;1094;49.902;10.876;2022-11-04T16:25:57;6.03;;;5.40;;
2175;SDS011;1094;49.902;10.876;2022-11-04T16:28:23;10.03;;;5.40;;
2175;SDS011;1094;49.902;10.876;2022-11-04T16:30:56;11.77;;;6.23;;
2175;SDS011;1094;49.902;10.876;2022-11-04T16:33:22;9.50;;;5.70;;
2175;SDS011;1094;49.902;10.876;2022-11-04T16:35:48;7.30;;;5.90;;
2175;SDS011;1094;49.902;10.876;2022-11-04T16:38:14;10.90;;;5.90;;
2175;SDS011;1094;49.902;10.876;2022-11-04T16:40:41;6.17;;;5.57;;
2175;SDS011;1094;49.902;10.876;2022-11-04T16:43:08;10.23;;;6.13;;
2175;SDS011;1094;49.902;10.876;2022-11-04T16:45:35;8.93;;;6.10;;
2175;SDS011;1094;49.902;10.876;2022-11-04T16:48:03;13.57;;;8.70;;
2175;SDS011;1094;49.902;10.876;2022-11-04T16:50:29;17.30;;;8.33;;
2175;SDS011;1094;49.902;10.876;2022-11-04T16:52:58;10.90;;;7.73;;
2175;SDS011;1094;49.902;10.876;2022-11-04T16:55:24;16.37;;;7.40;;
2175;SDS011;1094;49.902;10.876;2022-11-04T16:57:53;16.80;;;9.07;;
2175;SDS011;1094;49.902;10.876;2022-11-04T17:00:21;9.13;;;7.13;;
2175;SDS011;1094;49.902;10.876;2022-11-04T17:02:48;10.50;;;8.80;;
2175;SDS011;1094;49.902;10.876;2022-11-04T17:05:15;12.23;;;8.10;;
2175;SDS011;1094;49.902;10.876;2022-11-04T17:07:41;15.10;;;8.20;;
2175;SDS011;1094;49.902;10.876;2022-11-04T17:10:14;10.77;;;7.93;;
2175;SDS011;1094;49.902;10.876;2022-11-04T17:12:41;12.70;;;8.10;;
2175;SDS011;1094;49.902;10.876;2022-11-04T17:15:07;12.30;;;7.53;;
2175;SDS011;1094;49.902;10.876;2022-11-04T17:17:33;9.70;;;7.70;;
2175;SDS011;1094;49.902;10.876;2022-11-04T17:19:59;10.27;;;8.00;;
2175;SDS011;1094;49.902;10.876;2022-11-04T17:22:25;10.97;;;8.10;;
2175;SDS011;1094;49.902;10.876;2022-11-04T17:24:51;18.17;;;8.30;;